Time;durP1;ratioP1;P1;durP2;ratioP2;P2;SDS_P1;SDS_P2;PMS_P1;PMS_P2;Temp;Humidity;BMP_temperature;BMP_pressure;BME280_temperature;BME280_humidity;BME280_pressure;Samples;Min_cycle;Max_cycle;Signal;HPM_P1;HPM_P2
2021/09/12 00:00:31;;;;;;;;;;;;;;;21.05;100.00;99188.03;5101138;28;19922;-63
2021/09/12 00:02:56;;;;;;;;;;;;;;;21.37;100.00;99186.59;5103600;28;19967;-64
2021/09/12 00:05:21;;;;;;;;;;;;;;;21.62;100.00;99191.75;5092252;28;20384;-63
2021/09/12 00:07:47;;;;;;;;;;;;;;;21.10;100.00;99193.75;5107741;28;19923;-61
2021/09/12 00:10:12;;;;;;;;;;;;;;;21.35;100.00;99193.75;5101249;28;19926;-62
2021/09/12 00:12:38;;;;;;;;;;;;;;;21.01;100.00;99196.22;5084053;28;19923;-63
2021/09/12 00:15:04;;;;;;;;;;;;;;;21.06;100.00;99188.88;5103996;28;19963;-63
2021/09/12 00:17:30;;;;;;;;;;;;;;;21.19;100.00;99194.88;5105164;28;19993;-62
2021/09/12 00:19:55;;;;;;;;;;;;;;;21.10;100.00;99195.56;5105001;28;19916;-62
2021/09/12 00:22:20;;;;;;;;;;;;;;;21.14;100.00;99189.13;5103755;28;19985;-63
2021/09/12 00:24:46;;;;;;;;;;;;;;;20.96;100.00;99198.31;5088591;28;19946;-63
2021/09/12 00:27:11;;;;;;;;;;;;;;;21.55;100.00;99185.28;5101412;28;20331;-63
2021/09/12 00:29:37;;;;;;;;;;;;;;;20.94;100.00;99184.50;5100963;28;20022;-63
2021/09/12 00:32:02;;;;;;;;;;;;;;;20.92;100.00;99192.47;5082352;28;19963;-64
2021/09/12 00:34:27;;;;;;;;;;;;;;;20.69;100.00;99188.88;5084917;28;20361;-62
2021/09/12 00:36:52;;;;;;;;;;;;;;;21.31;100.00;99188.75;5104085;28;19918;-63
2021/09/12 00:39:18;;;;;;;;;;;;;;;21.10;100.00;99179.84;5101913;28;20285;-64
2021/09/12 00:41:44;;;;;;;;;;;;;;;21.15;100.00;99177.72;5102050;28;19916;-62
2021/09/12 00:44:12;;;;;;;;;;;;;;;20.74;100.00;99184.16;5100906;28;20012;-63
2021/09/12 00:46:40;;;;;;;;;;;;;;;20.91;100.00;99179.50;5103179;28;19916;-63
2021/09/12 00:49:06;;;;;;;;;;;;;;;20.66;100.00;99184.72;5100500;28;20002;-62
2021/09/12 00:51:31;;;;;;;;;;;;;;;20.92;100.00;99181.19;5101659;28;20002;-63
2021/09/12 00:53:58;;;;;;;;;;;;;;;21.44;100.00;99183.47;5102365;28;20023;-63
2021/09/12 00:56:24;;;;;;;;;;;;;;;21.15;100.00;99176.88;5090318;28;20272;-62
2021/09/12 00:58:49;;;;;;;;;;;;;;;20.80;100.00;99183.72;5083964;28;19911;-64
2021/09/12 01:01:14;;;;;;;;;;;;;;;20.87;100.00;99179.72;5101426;28;20015;-63
2021/09/12 01:03:39;;;;;;;;;;;;;;;20.61;100.00;99173.72;5104223;28;19933;-64
2021/09/12 01:06:05;;;;;;;;;;;;;;;21.23;100.00;99180.63;5097267;28;19911;-63
2021/09/12 01:08:31;;;;;;;;;;;;;;;21.28;100.00;99172.44;5085728;28;19923;-65
2021/09/12 01:10:56;;;;;;;;;;;;;;;21.28;100.00;99167.19;5082929;28;19915;-65
2021/09/12 01:13:22;;;;;;;;;;;;;;;21.59;100.00;99164.94;5098616;28;19923;-63
2021/09/12 01:15:48;;;;;;;;;;;;;;;21.65;100.00;99170.56;5100420;28;19920;-63
2021/09/12 01:18:13;;;;;;;;;;;;;;;21.79;100.00;99166.88;5099777;28;19912;-63
2021/09/12 01:20:38;;;;;;;;;;;;;;;20.53;100.00;99170.78;5101559;28;19916;-63
2021/09/12 01:23:06;;;;;;;;;;;;;;;20.41;100.00;99169.88;5101120;28;20028;-63
2021/09/12 01:25:32;;;;;;;;;;;;;;;21.07;100.00;99165.19;5102004;28;19926;-63
2021/09/12 01:27:57;;;;;;;;;;;;;;;21.35;100.00;99162.31;5099957;28;19916;-63
2021/09/12 01:30:23;;;;;;;;;;;;;;;21.38;100.00;99162.09;5102885;28;19912;-62
2021/09/12 01:32:48;;;;;;;;;;;;;;;21.50;100.00;99166.44;5104064;28;20411;-63
2021/09/12 01:35:13;;;;;;;;;;;;;;;20.50;100.00;99170.97;5085136;28;20022;-63
2021/09/12 01:37:39;;;;;;;;;;;;;;;21.11;100.00;99163.16;5101106;28;19919;-63
2021/09/12 01:40:04;;;;;;;;;;;;;;;21.48;100.00;99157.88;5102815;28;19912;-62
2021/09/12 01:42:30;;;;;;;;;;;;;;;20.84;100.00;99163.38;5099659;28;19969;-64
2021/09/12 01:44:56;;;;;;;;;;;;;;;20.53;100.00;99169.94;5103189;28;19911;-63
2021/09/12 01:47:21;;;;;;;;;;;;;;;20.68;100.00;99166.25;5080666;28;19935;-65
2021/09/12 01:49:46;;;;;;;;;;;;;;;21.31;100.00;99157.31;5100518;28;19919;-64
2021/09/12 01:52:13;;;;;;;;;;;;;;;21.17;100.00;99154.88;5099899;28;19919;-63
2021/09/12 01:54:38;;;;;;;;;;;;;;;21.31;100.00;99152.06;5082604;28;19927;-62
2021/09/12 01:57:04;;;;;;;;;;;;;;;20.82;100.00;99160.03;5101472;28;19920;-62
2021/09/12 01:59:29;;;;;;;;;;;;;;;20.76;100.00;99156.09;5098499;28;19989;-62
2021/09/12 02:01:55;;;;;;;;;;;;;;;20.68;100.00;99163.66;5099628;28;19991;-63
2021/09/12 02:04:20;;;;;;;;;;;;;;;21.22;100.00;99147.50;5099871;28;20473;-63
2021/09/12 02:06:45;;;;;;;;;;;;;;;20.27;100.00;99159.50;5099940;28;19920;-64
2021/09/12 02:09:11;;;;;;;;;;;;;;;20.75;100.00;99148.34;5100568;28;19950;-64
2021/09/12 02:11:36;;;;;;;;;;;;;;;21.30;100.00;99152.16;5097671;28;19920;-64
2021/09/12 02:14:01;;;;;;;;;;;;;;;21.27;100.00;99149.78;5107544;28;20010;-62
2021/09/12 02:16:27;;;;;;;;;;;;;;;20.23;100.00;99168.50;5098822;28;19923;-60
2021/09/12 02:18:52;;;;;;;;;;;;;;;20.86;100.00;99156.25;5102767;28;19919;-63
2021/09/12 02:21:18;;;;;;;;;;;;;;;20.92;100.00;99155.81;5101127;28;19919;-62
2021/09/12 02:23:43;;;;;;;;;;;;;;;20.89;100.00;99145.56;5097172;28;19920;-64
2021/09/12 02:26:09;;;;;;;;;;;;;;;20.29;100.00;99160.25;5100235;28;20488;-64
2021/09/12 02:28:34;;;;;;;;;;;;;;;20.92;100.00;99150.59;5099371;28;19915;-63
2021/09/12 02:30:59;;;;;;;;;;;;;;;20.95;100.00;99152.16;5079202;28;20019;-63
2021/09/12 02:33:25;;;;;;;;;;;;;;;20.74;100.00;99157.97;5102746;28;19955;-63
2021/09/12 02:35:50;;;;;;;;;;;;;;;21.06;100.00;99146.97;5111903;28;20342;-62
2021/09/12 02:38:15;;;;;;;;;;;;;;;21.08;100.00;99150.31;5109817;28;19923;-63
2021/09/12 02:40:41;;;;;;;;;;;;;;;20.68;100.00;99153.19;5099598;28;20384;-62
2021/09/12 02:43:07;;;;;;;;;;;;;;;21.07;100.00;99146.88;5095272;28;19912;-62
2021/09/12 02:45:32;;;;;;;;;;;;;;;20.91;100.00;99148.06;5098975;28;19912;-63
2021/09/12 02:47:58;;;;;;;;;;;;;;;20.61;100.00;99157.19;5083752;28;19922;-63
2021/09/12 02:50:23;;;;;;;;;;;;;;;20.48;100.00;99158.03;5100252;28;19920;-61
2021/09/12 02:52:48;;;;;;;;;;;;;;;20.38;100.00;99162.22;5096541;28;20016;-61
2021/09/12 02:55:14;;;;;;;;;;;;;;;19.48;100.00;99156.13;5094700;28;19923;-63
2021/09/12 02:57:39;;;;;;;;;;;;;;;19.61;100.00;99162.22;5097383;28;19919;-63
2021/09/12 03:00:05;;;;;;;;;;;;;;;19.25;100.00;99164.63;5100289;28;19918;-62
2021/09/12 03:02:30;;;;;;;;;;;;;;;19.56;100.00;99164.28;5098532;28;19916;-63
2021/09/12 03:04:55;;;;;;;;;;;;;;;18.98;100.00;99163.69;5098386;28;19912;-61
2021/09/12 03:07:20;;;;;;;;;;;;;;;19.20;100.00;99173.59;5099225;28;19915;-61
2021/09/12 03:09:46;;;;;;;;;;;;;;;19.04;100.00;99172.91;5102203;28;20296;-62
2021/09/12 03:12:11;;;;;;;;;;;;;;;19.39;100.00;99178.47;5109476;28;19950;-62
2021/09/12 03:14:37;;;;;;;;;;;;;;;19.17;100.00;99176.41;5099397;28;19924;-64
2021/09/12 03:17:02;;;;;;;;;;;;;;;18.81;100.00;99187.41;5099941;28;19976;-64
2021/09/12 03:19:27;;;;;;;;;;;;;;;19.20;100.00;99183.19;5097874;28;19915;-64
2021/09/12 03:21:53;;;;;;;;;;;;;;;19.08;100.00;99186.59;5101926;28;19912;-63
2021/09/12 03:24:18;;;;;;;;;;;;;;;19.05;100.00;99185.03;5098751;28;20011;-64
2021/09/12 03:26:43;;;;;;;;;;;;;;;19.35;100.00;99176.16;5103262;28;19941;-63
2021/09/12 03:29:08;;;;;;;;;;;;;;;19.83;100.00;99171.25;5097260;28;19916;-64
2021/09/12 03:31:34;;;;;;;;;;;;;;;20.53;100.00;99159.50;5107249;28;19938;-61
2021/09/12 03:33:59;;;;;;;;;;;;;;;20.60;100.00;99156.34;5102104;28;20018;-63
2021/09/12 03:36:25;;;;;;;;;;;;;;;19.99;100.00;99161.41;5102025;28;19915;-62
2021/09/12 03:38:50;;;;;;;;;;;;;;;20.01;100.00;99159.53;5100095;28;19912;-63
2021/09/12 03:41:15;;;;;;;;;;;;;;;20.37;100.00;99160.56;5096480;28;19915;-64
2021/09/12 03:43:41;;;;;;;;;;;;;;;20.29;100.00;99162.84;5096457;28;20438;-61
2021/09/12 03:46:06;;;;;;;;;;;;;;;20.58;100.00;99157.41;5099084;28;19920;-63
2021/09/12 03:48:31;;;;;;;;;;;;;;;20.15;100.00;99165.59;5099977;28;19957;-63
2021/09/12 03:50:57;;;;;;;;;;;;;;;19.85;100.00;99161.53;5101700;28;19912;-64
2021/09/12 03:53:22;;;;;;;;;;;;;;;20.52;100.00;99163.84;5100507;28;20281;-63
2021/09/12 03:55:47;;;;;;;;;;;;;;;20.75;100.00;99164.88;5097677;28;19919;-65
2021/09/12 03:58:13;;;;;;;;;;;;;;;20.29;100.00;99168.09;5097747;28;19926;-63
2021/09/12 04:00:38;;;;;;;;;;;;;;;20.35;100.00;99167.66;5098988;28;19985;-63
2021/09/12 04:03:03;;;;;;;;;;;;;;;20.13;100.00;99162.25;5088423;28;19915;-62
2021/09/12 04:05:28;;;;;;;;;;;;;;;20.35;100.00;99165.06;5111018;28;19972;-61
2021/09/12 04:07:54;;;;;;;;;;;;;;;20.66;100.00;99165.53;5095712;28;19947;-62
2021/09/12 04:10:19;;;;;;;;;;;;;;;20.47;100.00;99169.41;5094037;28;19911;-63
2021/09/12 04:12:44;;;;;;;;;;;;;;;20.67;100.00;99156.75;5077417;28;19923;-63
2021/09/12 04:15:10;;;;;;;;;;;;;;;20.44;100.00;99155.72;5099869;28;19920;-62
2021/09/12 04:17:36;;;;;;;;;;;;;;;20.25;100.00;99161.38;5105768;28;20713;-64
2021/09/12 04:20:02;;;;;;;;;;;;;;;20.00;100.00;99157.00;5097079;28;19916;-65
2021/09/12 04:22:27;;;;;;;;;;;;;;;19.94;100.00;99160.06;5097342;28;20400;-62
2021/09/12 04:24:52;;;;;;;;;;;;;;;20.39;100.00;99157.81;5108754;28;19912;-61
2021/09/12 04:27:18;;;;;;;;;;;;;;;20.34;100.00;99160.75;5078615;28;19978;-64
2021/09/12 04:29:43;;;;;;;;;;;;;;;20.18;100.00;99168.00;5106888;28;19964;-62
2021/09/12 04:32:09;;;;;;;;;;;;;;;19.26;100.00;99166.31;5100917;28;19912;-63
2021/09/12 04:34:34;;;;;;;;;;;;;;;19.25;100.00;99169.84;5097203;28;19930;-64
2021/09/12 04:36:59;;;;;;;;;;;;;;;19.72;100.00;99164.13;5097809;28;20420;-62
2021/09/12 04:39:25;;;;;;;;;;;;;;;19.91;100.00;99163.72;5103109;28;19918;-62
2021/09/12 04:41:50;;;;;;;;;;;;;;;19.93;100.00;99167.06;5102476;28;19916;-63
2021/09/12 04:44:16;;;;;;;;;;;;;;;19.89;100.00;99165.59;5098671;28;19919;-61
2021/09/12 04:46:41;;;;;;;;;;;;;;;19.67;100.00;99167.97;5104869;28;20002;-61
2021/09/12 04:49:06;;;;;;;;;;;;;;;19.39;100.00;99167.19;5100530;28;19934;-61
2021/09/12 04:51:32;;;;;;;;;;;;;;;19.35;100.00;99165.69;5101767;28;19973;-61
2021/09/12 04:53:57;;;;;;;;;;;;;;;19.66;100.00;99172.34;5097452;28;19947;-62
2021/09/12 04:56:23;;;;;;;;;;;;;;;19.43;100.00;99168.63;5095862;28;20444;-63
2021/09/12 04:58:48;;;;;;;;;;;;;;;19.13;100.00;99168.88;5105150;28;19915;-63
2021/09/12 05:01:14;;;;;;;;;;;;;;;19.74;100.00;99172.69;5097661;28;19939;-62
2021/09/12 05:03:39;;;;;;;;;;;;;;;20.00;100.00;99163.09;5101996;28;19962;-62
2021/09/12 05:06:04;;;;;;;;;;;;;;;20.14;100.00;99167.38;5100624;28;20376;-60
2021/09/12 05:08:30;;;;;;;;;;;;;;;19.26;100.00;99174.13;5108497;28;19911;-62
2021/09/12 05:10:55;;;;;;;;;;;;;;;19.22;100.00;99178.72;5105035;28;20500;-64
2021/09/12 05:13:20;;;;;;;;;;;;;;;18.95;100.00;99179.56;5088227;28;19959;-62
2021/09/12 05:15:46;;;;;;;;;;;;;;;19.28;100.00;99182.72;5110647;28;19919;-62
2021/09/12 05:18:11;;;;;;;;;;;;;;;19.25;100.00;99180.28;5108701;28;20335;-63
2021/09/12 05:20:37;;;;;;;;;;;;;;;19.40;100.00;99180.13;5101047;28;19912;-63
2021/09/12 05:23:02;;;;;;;;;;;;;;;19.75;100.00;99173.53;5103108;28;20018;-63
2021/09/12 05:25:28;;;;;;;;;;;;;;;20.03;100.00;99178.56;5105145;28;19912;-63
2021/09/12 05:27:53;;;;;;;;;;;;;;;19.27;100.00;99175.78;5103497;28;19920;-63
2021/09/12 05:30:18;;;;;;;;;;;;;;;19.29;100.00;99186.97;5102776;28;19962;-65
2021/09/12 05:32:49;;;;;;;;;;;;;;;19.32;100.00;99184.19;5100691;28;19920;-64
2021/09/12 05:35:14;;;;;;;;;;;;;;;19.32;100.00;99185.03;5099367;28;19920;-62
2021/09/12 05:37:40;;;;;;;;;;;;;;;19.01;100.00;99189.59;5101608;28;19989;-64
2021/09/12 05:40:05;;;;;;;;;;;;;;;19.49;100.00;99186.53;5101412;28;19998;-63
2021/09/12 05:42:31;;;;;;;;;;;;;;;19.27;100.00;99194.06;5100863;28;19954;-64
2021/09/12 05:44:56;;;;;;;;;;;;;;;19.16;100.00;99195.63;5103179;28;20073;-63
2021/09/12 05:47:21;;;;;;;;;;;;;;;19.29;100.00;99195.66;5100810;28;19964;-63
2021/09/12 05:49:47;;;;;;;;;;;;;;;19.31;100.00;99195.56;5100803;28;19922;-64
2021/09/12 05:52:12;;;;;;;;;;;;;;;19.18;100.00;99201.59;5082118;28;20018;-61
2021/09/12 05:54:38;;;;;;;;;;;;;;;19.31;100.00;99201.63;5083898;28;19942;-64
2021/09/12 05:57:03;;;;;;;;;;;;;;;19.48;100.00;99203.16;5099879;28;19919;-63
2021/09/12 05:59:28;;;;;;;;;;;;;;;19.45;100.00;99203.31;5093389;28;19980;-63
2021/09/12 06:01:54;;;;;;;;;;;;;;;19.67;100.00;99207.16;5100983;28;19973;-64
2021/09/12 06:04:19;;;;;;;;;;;;;;;19.22;100.00;99215.25;5104294;28;19916;-62
2021/09/12 06:06:44;;;;;;;;;;;;;;;18.90;100.00;99225.13;5101439;28;19918;-63
2021/09/12 06:09:10;;;;;;;;;;;;;;;19.56;100.00;99216.53;5102557;28;20019;-64
2021/09/12 06:11:35;;;;;;;;;;;;;;;19.39;100.00;99217.63;5103037;28;19920;-64
2021/09/12 06:14:20;;;;;;;;;;;;;;;19.47;100.00;99222.34;5099696;28;19919;-62
2021/09/12 06:16:46;;;;;;;;;;;;;;;19.53;100.00;99221.97;5104518;28;20381;-63
2021/09/12 06:19:11;;;;;;;;;;;;;;;19.12;100.00;99222.84;5111859;28;19982;-64
2021/09/12 06:21:37;;;;;;;;;;;;;;;19.08;100.00;99237.03;5085121;28;20321;-62
2021/09/12 06:24:02;;;;;;;;;;;;;;;19.27;100.00;99231.47;5098773;28;20326;-62
2021/09/12 06:26:27;;;;;;;;;;;;;;;18.99;100.00;99238.44;5097525;28;19963;-63
2021/09/12 06:28:53;;;;;;;;;;;;;;;19.22;100.00;99236.97;5100578;28;19915;-64
2021/09/12 06:31:18;;;;;;;;;;;;;;;19.60;100.00;99231.06;5098029;28;19938;-64
2021/09/12 06:33:44;;;;;;;;;;;;;;;19.20;100.00;99243.25;5099769;28;19978;-63
2021/09/12 06:36:09;;;;;;;;;;;;;;;19.69;100.00;99226.22;5079902;28;19926;-65
2021/09/12 06:38:35;;;;;;;;;;;;;;;19.97;100.00;99228.66;5100867;28;19918;-64
2021/09/12 06:41:00;;;;;;;;;;;;;;;19.56;100.00;99231.38;5099470;28;19912;-64
2021/09/12 06:43:25;;;;;;;;;;;;;;;20.15;100.00;99228.34;5100591;28;19947;-63
2021/09/12 06:45:51;;;;;;;;;;;;;;;19.90;100.00;99230.00;5112136;28;20269;-63
2021/09/12 06:48:16;;;;;;;;;;;;;;;20.23;100.00;99226.91;5111400;28;20356;-63
2021/09/12 06:50:41;;;;;;;;;;;;;;;20.15;100.00;99231.81;5081690;28;19915;-63
2021/09/12 06:53:06;;;;;;;;;;;;;;;19.21;100.00;99230.09;5098474;28;19915;-64
2021/09/12 06:55:32;;;;;;;;;;;;;;;20.24;100.00;99232.97;5103306;28;19924;-64
2021/09/12 06:57:57;;;;;;;;;;;;;;;19.56;100.00;99234.81;5105680;28;19916;-63
2021/09/12 07:00:22;;;;;;;;;;;;;;;19.36;100.00;99236.13;5100371;28;20345;-63
2021/09/12 07:02:48;;;;;;;;;;;;;;;20.31;100.00;99226.38;5096533;28;19912;-62
2021/09/12 07:05:13;;;;;;;;;;;;;;;20.49;100.00;99226.88;5107509;28;19964;-63
2021/09/12 07:07:38;;;;;;;;;;;;;;;20.35;100.00;99234.84;5098932;28;19912;-62
2021/09/12 07:10:04;;;;;;;;;;;;;;;19.19;100.00;99241.56;5098110;28;19916;-63
2021/09/12 07:12:29;;;;;;;;;;;;;;;19.97;100.00;99236.50;5099036;28;19989;-63
2021/09/12 07:14:55;;;;;;;;;;;;;;;20.82;100.00;99234.19;5103060;28;19923;-63
2021/09/12 07:17:20;;;;;;;;;;;;;;;20.41;100.00;99230.03;5098855;28;19954;-64
2021/09/12 07:19:45;;;;;;;;;;;;;;;20.26;100.00;99226.69;5099753;28;20034;-63
2021/09/12 07:22:11;;;;;;;;;;;;;;;19.89;100.00;99233.56;5091839;28;19912;-63
2021/09/12 07:24:38;;;;;;;;;;;;;;;20.35;100.00;99237.47;5090755;28;19919;-63
2021/09/12 07:27:04;;;;;;;;;;;;;;;20.55;100.00;99236.06;5100093;28;19911;-64
2021/09/12 07:29:29;;;;;;;;;;;;;;;20.76;100.00;99229.38;5098236;28;20368;-66
2021/09/12 07:31:56;;;;;;;;;;;;;;;20.25;100.00;99237.22;5100103;28;19912;-63
2021/09/12 07:34:21;;;;;;;;;;;;;;;20.83;100.00;99230.63;5079972;28;19923;-65
2021/09/12 07:36:47;;;;;;;;;;;;;;;20.76;100.00;99224.16;5100365;28;19916;-65
2021/09/12 07:39:12;;;;;;;;;;;;;;;20.79;100.00;99229.16;5099280;28;20017;-64
2021/09/12 07:41:39;;;;;;;;;;;;;;;20.38;100.00;99238.06;5099745;28;19969;-61
2021/09/12 07:44:04;;;;;;;;;;;;;;;20.73;100.00;99234.81;5097652;28;19920;-64
2021/09/12 07:46:30;;;;;;;;;;;;;;;20.22;100.00;99233.06;5100596;28;19916;-64
2021/09/12 07:48:55;;;;;;;;;;;;;;;19.19;100.00;99244.19;5097801;28;19915;-63
2021/09/12 07:51:21;;;;;;;;;;;;;;;19.09;100.00;99238.72;5098902;28;19946;-62
2021/09/12 07:53:46;;;;;;;;;;;;;;;19.10;100.00;99240.38;5099519;28;19919;-62
2021/09/12 07:56:11;;;;;;;;;;;;;;;19.44;100.00;99243.44;5098474;28;19915;-63
2021/09/12 07:58:37;;;;;;;;;;;;;;;19.84;100.00;99241.72;5099483;28;19920;-64
2021/09/12 08:01:02;;;;;;;;;;;;;;;19.81;100.00;99241.06;5098294;28;19916;-63
2021/09/12 08:03:28;;;;;;;;;;;;;;;19.69;100.00;99242.72;5098518;28;20424;-64
2021/09/12 08:05:53;;;;;;;;;;;;;;;19.29;100.00;99240.03;5100180;28;19993;-63
2021/09/12 08:08:19;;;;;;;;;;;;;;;19.41;100.00;99238.44;5104884;28;19972;-63
2021/09/12 08:10:47;;;;;;;;;;;;;;;19.82;100.00;99248.81;5109985;28;19943;-63
2021/09/12 08:13:13;;;;;;;;;;;;;;;19.63;100.00;99254.38;5109564;28;19915;-63
2021/09/12 08:15:38;;;;;;;;;;;;;;;19.69;100.00;99257.56;5106318;28;19981;-62
2021/09/12 08:18:04;;;;;;;;;;;;;;;19.22;100.00;99255.25;5100633;28;19958;-63
2021/09/12 08:20:29;;;;;;;;;;;;;;;19.63;100.00;99253.53;5106482;28;20330;-62
2021/09/12 08:22:54;;;;;;;;;;;;;;;19.17;100.00;99264.34;5094935;28;19951;-62
2021/09/12 08:25:20;;;;;;;;;;;;;;;19.48;100.00;99252.78;5086640;28;20288;-62
2021/09/12 08:27:45;;;;;;;;;;;;;;;19.80;100.00;99255.09;5101214;28;19915;-62
2021/09/12 08:30:10;;;;;;;;;;;;;;;19.34;100.00;99258.03;5103415;28;19973;-62
2021/09/12 08:32:36;;;;;;;;;;;;;;;19.61;100.00;99261.50;5102290;28;19916;-62
2021/09/12 08:35:01;;;;;;;;;;;;;;;20.44;100.00;99253.34;5085545;28;19923;-62
2021/09/12 08:37:27;;;;;;;;;;;;;;;20.45;100.00;99251.56;5093414;28;19923;-62
2021/09/12 08:39:53;;;;;;;;;;;;;;;20.88;100.00;99253.84;5080205;28;19937;-62
2021/09/12 08:42:18;;;;;;;;;;;;;;;20.11;100.00;99258.25;5102193;28;19981;-64
2021/09/12 08:44:44;;;;;;;;;;;;;;;20.34;100.00;99254.09;5103255;28;19920;-64
2021/09/12 08:47:10;;;;;;;;;;;;;;;21.16;100.00;99255.31;5100818;28;19973;-64
2021/09/12 08:49:35;;;;;;;;;;;;;;;20.00;100.00;99257.22;5105075;28;20369;-64
2021/09/12 08:52:00;;;;;;;;;;;;;;;19.96;100.00;99254.91;5082483;28;19977;-64
2021/09/12 08:54:26;;;;;;;;;;;;;;;21.37;100.00;99244.25;5104556;28;19919;-64
2021/09/12 08:56:51;;;;;;;;;;;;;;;21.87;100.00;99247.56;5104881;28;19919;-64
2021/09/12 08:59:27;;;;;;;;;;;;;;;21.45;100.00;99248.00;5103700;28;19968;-64
2021/09/12 09:01:53;;;;;;;;;;;;;;;22.23;100.00;99257.09;5103144;28;19962;-63
2021/09/12 09:04:18;;;;;;;;;;;;;;;21.58;100.00;99262.84;5101151;28;19912;-64
2021/09/12 09:06:44;;;;;;;;;;;;;;;21.89;100.00;99256.16;5103810;28;19965;-63
2021/09/12 09:09:09;;;;;;;;;;;;;;;22.30;100.00;99254.84;5102781;28;19927;-64
2021/09/12 09:11:35;;;;;;;;;;;;;;;22.81;100.00;99254.41;5099097;28;20020;-64
2021/09/12 09:14:21;;;;;;;;;;;;;;;21.23;100.00;99264.44;5099937;28;19920;-64
2021/09/12 09:16:50;;;;;;;;;;;;;;;22.18;100.00;99248.72;5097699;28;19927;-64
2021/09/12 09:19:16;;;;;;;;;;;;;;;21.29;100.00;99252.66;5090134;28;19923;-64
2021/09/12 09:21:42;;;;;;;;;;;;;;;21.13;100.00;99252.94;5104962;28;19912;-64
2021/09/12 09:24:12;;;;;;;;;;;;;;;20.67;100.00;99256.19;5084703;28;20014;-64
2021/09/12 09:26:42;;;;;;;;;;;;;;;20.74;100.00;99256.59;5087323;28;19924;-65
2021/09/12 09:29:08;;;;;;;;;;;;;;;20.91;100.00;99260.66;5068232;28;19920;-65
2021/09/12 09:31:34;;;;;;;;;;;;;;;21.02;100.00;99255.50;5067362;28;19937;-65
2021/09/12 09:34:19;;;;;;;;;;;;;;;23.09;100.00;99246.97;5081790;28;19916;-64
2021/09/12 09:36:48;;;;;;;;;;;;;;;21.40;100.00;99250.16;5067428;28;19924;-63
2021/09/12 09:39:14;;;;;;;;;;;;;;;21.15;100.00;99255.47;5101013;28;20027;-63
2021/09/12 09:41:40;;;;;;;;;;;;;;;21.79;100.00;99248.16;5083671;28;20793;-62
2021/09/12 09:44:06;;;;;;;;;;;;;;;21.79;100.00;99255.19;5065149;28;20014;-62
2021/09/12 09:46:39;;;;;;;;;;;;;;;23.62;100.00;99248.84;5065896;28;19916;-62
2021/09/12 09:49:21;;;;;;;;;;;;;;;21.05;100.00;99255.25;5085488;28;20311;-61
2021/09/12 09:51:47;;;;;;;;;;;;;;;21.32;100.00;99247.19;5100835;28;19919;-62
2021/09/12 09:54:12;;;;;;;;;;;;;;;21.65;100.00;99246.56;5071584;28;19923;-62
2021/09/12 09:56:38;;;;;;;;;;;;;;;20.71;100.00;99251.56;5065189;28;20377;-61
2021/09/12 09:59:03;;;;;;;;;;;;;;;20.70;100.00;99255.16;5076175;28;19913;-62
2021/09/12 10:01:29;;;;;;;;;;;;;;;22.10;100.00;99246.69;5102241;28;19912;-62
2021/09/12 10:03:54;;;;;;;;;;;;;;;23.27;100.00;99247.31;5067505;28;19920;-62
2021/09/12 10:06:20;;;;;;;;;;;;;;;22.93;100.00;99235.03;5106154;28;19920;-62
2021/09/12 10:08:45;;;;;;;;;;;;;;;22.04;100.00;99244.53;5064597;28;19920;-65
2021/09/12 10:11:11;;;;;;;;;;;;;;;22.02;100.00;99243.81;5080213;28;19920;-65
2021/09/12 10:13:37;;;;;;;;;;;;;;;22.55;100.00;99233.63;5080975;28;19970;-64
2021/09/12 10:16:03;;;;;;;;;;;;;;;22.70;100.00;99236.84;5079371;28;19923;-64
2021/09/12 10:18:28;;;;;;;;;;;;;;;21.28;100.00;99240.53;5065010;28;19993;-65
2021/09/12 10:20:54;;;;;;;;;;;;;;;22.33;100.00;99238.88;5080564;28;19927;-65
2021/09/12 10:23:20;;;;;;;;;;;;;;;22.36;100.00;99238.66;5064467;28;19919;-65
2021/09/12 10:25:48;;;;;;;;;;;;;;;20.90;100.00;99236.25;5098027;28;19916;-63
2021/09/12 10:28:14;;;;;;;;;;;;;;;20.91;100.00;99244.94;5083888;28;20544;-62
2021/09/12 10:30:40;;;;;;;;;;;;;;;21.85;100.00;99238.97;5082603;28;19920;-62
2021/09/12 10:33:13;;;;;;;;;;;;;;;22.70;100.00;99230.78;5070706;28;19915;-62
2021/09/12 10:35:49;;;;;;;;;;;;;;;21.98;100.00;99229.25;5087607;28;19926;-61
2021/09/12 10:38:23;;;;;;;;;;;;;;;22.74;100.00;99229.59;5085474;28;19927;-62
2021/09/12 10:40:48;;;;;;;;;;;;;;;22.89;100.00;99228.34;5067907;28;19912;-61
2021/09/12 10:43:26;;;;;;;;;;;;;;;23.27;100.00;99224.47;5084540;28;19965;-62
2021/09/12 10:46:04;;;;;;;;;;;;;;;22.46;100.00;99229.09;5084784;28;19927;-62
2021/09/12 10:48:30;;;;;;;;;;;;;;;22.93;100.00;99223.69;5084614;28;19912;-62
2021/09/12 10:50:56;;;;;;;;;;;;;;;22.42;100.00;99222.44;5085110;28;20002;-62
2021/09/12 10:53:40;;;;;;;;;;;;;;;20.94;100.00;99232.47;5072537;28;20038;-62
2021/09/12 10:56:06;;;;;;;;;;;;;;;22.00;100.00;99229.13;5102483;28;19920;-61
2021/09/12 10:58:32;;;;;;;;;;;;;;;23.68;100.00;99224.69;5082417;28;19919;-62
2021/09/12 11:00:58;;;;;;;;;;;;;;;23.04;100.00;99228.13;5084561;28;19940;-62
2021/09/12 11:03:26;;;;;;;;;;;;;;;21.23;100.00;99227.78;5103571;28;19919;-62
2021/09/12 11:05:52;;;;;;;;;;;;;;;21.32;100.00;99231.47;5082525;28;20365;-62
2021/09/12 11:08:17;;;;;;;;;;;;;;;22.87;100.00;99222.38;5083416;28;19977;-61
2021/09/12 11:10:47;;;;;;;;;;;;;;;22.23;100.00;99222.16;5083835;28;19915;-62
2021/09/12 11:13:13;;;;;;;;;;;;;;;24.02;100.00;99214.84;5083545;28;19928;-63
2021/09/12 11:15:38;;;;;;;;;;;;;;;21.92;100.00;99216.63;5068018;28;19928;-63
2021/09/12 11:18:04;;;;;;;;;;;;;;;22.18;100.00;99213.78;5080907;28;19923;-63
2021/09/12 11:20:48;;;;;;;;;;;;;;;21.46;100.00;99220.03;5079749;28;19938;-64
2021/09/12 11:23:35;;;;;;;;;;;;;;;21.83;100.00;99217.31;5077895;28;20274;-63
2021/09/12 11:26:01;;;;;;;;;;;;;;;22.51;100.00;99199.88;5081123;28;19912;-64
2021/09/12 11:28:27;;;;;;;;;;;;;;;23.01;100.00;99196.84;5082262;28;19919;-64
2021/09/12 11:30:52;;;;;;;;;;;;;;;21.99;100.00;99199.47;5088617;28;19912;-64
2021/09/12 11:33:18;;;;;;;;;;;;;;;22.29;100.00;99200.72;5087090;28;20297;-64
2021/09/12 11:35:59;;;;;;;;;;;;;;;21.83;100.00;99196.34;5083300;28;19999;-64
2021/09/12 11:38:28;;;;;;;;;;;;;;;21.69;100.00;99197.34;5081394;28;19916;-64
2021/09/12 11:40:57;;;;;;;;;;;;;;;21.87;100.00;99184.66;5082623;28;20006;-62
2021/09/12 11:43:22;;;;;;;;;;;;;;;22.83;100.00;99197.34;5083491;28;20339;-60
2021/09/12 11:46:02;;;;;;;;;;;;;;;22.18;100.00;99198.06;5084259;28;19912;-61
2021/09/12 11:48:27;;;;;;;;;;;;;;;23.21;100.00;99193.44;5082596;28;20268;-64
2021/09/12 11:50:54;;;;;;;;;;;;;;;23.66;100.00;99195.88;5080346;28;20000;-64
2021/09/12 11:53:19;;;;;;;;;;;;;;;23.84;100.00;99190.09;5085174;28;19972;-64
2021/09/12 11:55:45;;;;;;;;;;;;;;;23.16;100.00;99190.34;5071409;28;19916;-64
2021/09/12 11:58:10;;;;;;;;;;;;;;;22.42;100.00;99190.94;5071660;28;19970;-64
2021/09/12 12:00:41;;;;;;;;;;;;;;;22.76;100.00;99186.50;5081112;28;19916;-64
2021/09/12 12:03:07;;;;;;;;;;;;;;;22.31;100.00;99193.56;5092903;28;19920;-64
2021/09/12 12:05:32;;;;;;;;;;;;;;;22.06;100.00;99187.56;5084669;28;19913;-64
2021/09/12 12:08:04;;;;;;;;;;;;;;;22.72;100.00;99186.84;5081496;28;19912;-64
2021/09/12 12:10:34;;;;;;;;;;;;;;;22.61;100.00;99184.25;5072641;28;20266;-63
2021/09/12 12:12:59;;;;;;;;;;;;;;;21.90;100.00;99184.44;5084769;28;19912;-64
2021/09/12 12:15:35;;;;;;;;;;;;;;;24.12;100.00;99184.13;5085472;28;19973;-63
2021/09/12 12:18:00;;;;;;;;;;;;;;;22.99;100.00;99181.22;5087099;28;21058;-63
2021/09/12 12:20:31;;;;;;;;;;;;;;;24.00;100.00;99180.75;5086011;28;19916;-63
2021/09/12 12:22:56;;;;;;;;;;;;;;;24.77;100.00;99179.41;5088809;28;19923;-63
2021/09/12 12:25:28;;;;;;;;;;;;;;;24.01;100.00;99179.78;5071094;28;20372;-63
2021/09/12 12:27:54;;;;;;;;;;;;;;;24.07;100.00;99183.69;5088152;28;19920;-62
2021/09/12 12:30:19;;;;;;;;;;;;;;;26.08;100.00;99170.25;5087401;28;19965;-63